createdAt,value
2019-03-27T00:07:02.430Z,64.2
2019-03-27T00:22:14.758Z,62.2
2019-03-27T00:37:27.323Z,62.1
2019-03-27T00:52:39.685Z,62.5
2019-03-27T01:07:52.260Z,61.2
2019-03-27T01:23:04.714Z,61.4
2019-03-27T01:38:17.141Z,64.6
2019-03-27T01:53:24.652Z,65.3
2019-03-27T02:08:42.109Z,66.4
2019-03-27T02:23:54.612Z,68.2
2019-03-27T02:39:07.077Z,68.6
2019-03-27T02:54:09.476Z,68
2019-03-27T03:09:32.101Z,69.8
2019-03-27T03:24:44.507Z,71.1
2019-03-27T03:39:57.015Z,73.3
2019-03-27T03:55:09.394Z,73.8
2019-03-27T04:10:21.003Z,73.5
2019-03-27T04:26:09.411Z,73.9
2019-03-27T04:41:14.443Z,74
2019-03-27T04:56:41.093Z,75.7
2019-03-27T05:12:07.806Z,78.1
2019-03-27T05:27:21.714Z,81.8
2019-03-27T05:42:34.206Z,85.5
2019-03-27T05:57:46.842Z,85.8
2019-03-27T06:12:53.175Z,86.3
2019-03-27T06:28:12.022Z,87
2019-03-27T06:43:24.548Z,86.5
2019-03-27T06:58:37.426Z,85.7
2019-03-27T07:13:50.173Z,84.5
2019-03-27T07:29:02.967Z,81.8
2019-03-27T07:44:15.804Z,78.9
2019-03-27T07:59:28.794Z,77
2019-03-27T08:14:41.735Z,79.6
2019-03-27T08:29:52.311Z,77.4
2019-03-27T08:45:07.931Z,75
2019-03-27T09:00:21.707Z,71.8
2019-03-27T09:15:34.442Z,69.6
2019-03-27T09:30:40.413Z,66.1
2019-03-27T09:46:01.325Z,63.6
2019-03-27T10:01:14.883Z,62.8
2019-03-27T10:16:28.489Z,59
2019-03-27T10:31:42.024Z,57.2
2019-03-27T10:46:55.881Z,49.7
2019-03-27T11:02:09.812Z,46
2019-03-27T11:17:23.533Z,47.8
2019-03-27T11:32:37.351Z,49.2
2019-03-27T11:47:47.047Z,47
2019-03-27T12:03:05.155Z,45.3
2019-03-27T12:18:19.089Z,45.2
2019-03-27T12:33:32.979Z,46.5
2019-03-27T12:48:36.866Z,48.5
2019-03-27T13:04:00.702Z,47.1
2019-03-27T13:19:14.642Z,45.5
2019-03-27T13:34:28.665Z,45.3
2019-03-27T13:49:42.526Z,48.7
2019-03-27T14:04:54.305Z,50
2019-03-27T14:20:10.285Z,48.9
2019-03-27T14:35:24.344Z,47
2019-03-27T14:50:38.402Z,48.9
2019-03-27T15:05:43.952Z,50.5
2019-03-27T15:21:06.412Z,48.8
2019-03-27T15:36:20.545Z,49.2
2019-03-27T15:51:34.588Z,50.6
2019-03-27T16:06:48.490Z,52.1
2019-03-27T16:22:01.391Z,52.7
2019-03-27T16:37:16.260Z,54.9
2019-03-27T16:52:31.225Z,51.7
2019-03-27T17:07:44.287Z,52.1
2019-03-27T17:22:50.614Z,53.2
2019-03-27T17:38:12.072Z,52.9
2019-03-27T17:53:32.235Z,53.2
2019-03-27T18:08:39.607Z,53.2
2019-03-27T18:23:53.421Z,53.6
2019-03-27T18:39:07.213Z,53.4
2019-03-27T18:54:23.739Z,53.3
2019-03-27T19:09:34.778Z,53.4
2019-03-27T19:24:48.530Z,53.4
2019-03-27T19:39:55.901Z,53.8
2019-03-27T19:55:16.085Z,53.6
2019-03-27T20:10:29.880Z,54.8
2019-03-27T20:25:43.731Z,56.1
2019-03-27T20:40:57.440Z,55.7
2019-03-27T20:56:11.197Z,59.8
2019-03-27T21:11:25.485Z,64.1
2019-03-27T21:26:38.391Z,69.2
2019-03-27T21:41:51.962Z,71.3
2019-03-27T21:57:00.150Z,73.5
2019-03-27T22:12:19.002Z,77.3
2019-03-27T22:27:32.447Z,78.7
2019-03-27T22:42:45.941Z,78
2019-03-27T22:57:47.594Z,78.6
2019-03-27T23:13:12.702Z,77.9
2019-03-27T23:28:26.145Z,77.6
2019-03-27T23:43:40.275Z,77.2
2019-03-27T23:58:53.283Z,76.8
